sensor_id;sensor_type;location;lat;lon;timestamp;temperature;humidity
22379;DHT22;11357;49.990;7.370;2023-05-10T00:01:56;16.00;93.50
22379;DHT22;11357;49.990;7.370;2023-05-10T00:04:21;16.00;93.50
22379;DHT22;11357;49.990;7.370;2023-05-10T00:06:47;15.90;93.50
22379;DHT22;11357;49.990;7.370;2023-05-10T00:09:13;15.90;93.50
22379;DHT22;11357;49.990;7.370;2023-05-10T00:11:39;15.90;93.60
22379;DHT22;11357;49.990;7.370;2023-05-10T00:14:05;15.90;93.60
22379;DHT22;11357;49.990;7.370;2023-05-10T00:16:30;15.90;93.70
22379;DHT22;11357;49.990;7.370;2023-05-10T00:18:56;15.90;93.60
22379;DHT22;11357;49.990;7.370;2023-05-10T00:21:21;15.90;93.70
22379;DHT22;11357;49.990;7.370;2023-05-10T00:23:47;15.90;93.70
22379;DHT22;11357;49.990;7.370;2023-05-10T00:26:13;15.90;93.70
22379;DHT22;11357;49.990;7.370;2023-05-10T00:28:38;16.00;94.10
22379;DHT22;11357;49.990;7.370;2023-05-10T00:31:04;15.90;93.70
22379;DHT22;11357;49.990;7.370;2023-05-10T00:33:30;16.00;93.70
22379;DHT22;11357;49.990;7.370;2023-05-10T00:35:55;16.00;93.70
22379;DHT22;11357;49.990;7.370;2023-05-10T00:38:21;15.90;93.70
22379;DHT22;11357;49.990;7.370;2023-05-10T00:40:47;16.00;93.80
22379;DHT22;11357;49.990;7.370;2023-05-10T00:43:13;16.00;93.80
22379;DHT22;11357;49.990;7.370;2023-05-10T00:45:40;16.00;93.80
22379;DHT22;11357;49.990;7.370;2023-05-10T00:48:05;16.00;93.80
22379;DHT22;11357;49.990;7.370;2023-05-10T00:50:32;16.00;93.70
22379;DHT22;11357;49.990;7.370;2023-05-10T00:52:59;16.10;93.80
22379;DHT22;11357;49.990;7.370;2023-05-10T00:55:26;16.10;93.80
22379;DHT22;11357;49.990;7.370;2023-05-10T00:57:53;16.00;93.80
22379;DHT22;11357;49.990;7.370;2023-05-10T01:00:19;16.00;93.80
22379;DHT22;11357;49.990;7.370;2023-05-10T01:02:45;16.00;93.80
22379;DHT22;11357;49.990;7.370;2023-05-10T01:05:11;16.00;93.80
22379;DHT22;11357;49.990;7.370;2023-05-10T01:07:37;16.00;93.90
22379;DHT22;11357;49.990;7.370;2023-05-10T01:10:04;15.90;93.90
22379;DHT22;11357;49.990;7.370;2023-05-10T01:12:30;15.90;93.90
22379;DHT22;11357;49.990;7.370;2023-05-10T01:14:56;16.00;94.00
22379;DHT22;11357;49.990;7.370;2023-05-10T01:17:23;15.90;94.00
22379;DHT22;11357;49.990;7.370;2023-05-10T01:19:49;16.00;94.00
22379;DHT22;11357;49.990;7.370;2023-05-10T01:28:33;16.00;93.90
22379;DHT22;11357;49.990;7.370;2023-05-10T01:31:13;15.90;94.00
22379;DHT22;11357;49.990;7.370;2023-05-10T01:33:59;15.90;94.00
22379;DHT22;11357;49.990;7.370;2023-05-10T01:39:07;15.90;94.10
22379;DHT22;11357;49.990;7.370;2023-05-10T01:44:28;15.80;94.10
22379;DHT22;11357;49.990;7.370;2023-05-10T01:47:17;15.80;94.20
22379;DHT22;11357;49.990;7.370;2023-05-10T01:49:50;15.80;94.20
22379;DHT22;11357;49.990;7.370;2023-05-10T01:52:19;15.80;94.10
22379;DHT22;11357;49.990;7.370;2023-05-10T01:54:55;15.70;94.10
22379;DHT22;11357;49.990;7.370;2023-05-10T01:57:25;15.70;94.30
22379;DHT22;11357;49.990;7.370;2023-05-10T01:59:52;15.70;94.30
22379;DHT22;11357;49.990;7.370;2023-05-10T02:02:20;15.70;94.30
22379;DHT22;11357;49.990;7.370;2023-05-10T02:04:47;15.70;94.30
22379;DHT22;11357;49.990;7.370;2023-05-10T02:07:14;15.70;94.30
22379;DHT22;11357;49.990;7.370;2023-05-10T02:09:42;15.70;94.30
22379;DHT22;11357;49.990;7.370;2023-05-10T02:12:09;15.70;94.40
22379;DHT22;11357;49.990;7.370;2023-05-10T02:14:38;15.70;94.30
22379;DHT22;11357;49.990;7.370;2023-05-10T02:17:07;15.70;94.30
22379;DHT22;11357;49.990;7.370;2023-05-10T02:19:35;15.70;94.40
22379;DHT22;11357;49.990;7.370;2023-05-10T02:22:03;15.70;94.40
22379;DHT22;11357;49.990;7.370;2023-05-10T02:24:29;15.70;94.40
22379;DHT22;11357;49.990;7.370;2023-05-10T02:26:56;15.70;94.40
22379;DHT22;11357;49.990;7.370;2023-05-10T02:29:24;15.70;94.40
22379;DHT22;11357;49.990;7.370;2023-05-10T02:31:52;15.60;94.40
22379;DHT22;11357;49.990;7.370;2023-05-10T02:34:21;15.70;94.50
22379;DHT22;11357;49.990;7.370;2023-05-10T02:36:47;15.60;94.50
22379;DHT22;11357;49.990;7.370;2023-05-10T02:39:14;15.60;94.50
22379;DHT22;11357;49.990;7.370;2023-05-10T02:41:42;15.60;94.40
22379;DHT22;11357;49.990;7.370;2023-05-10T02:44:09;15.70;94.50
22379;DHT22;11357;49.990;7.370;2023-05-10T02:46:35;15.70;94.50
22379;DHT22;11357;49.990;7.370;2023-05-10T02:49:03;15.70;94.50
22379;DHT22;11357;49.990;7.370;2023-05-10T02:51:31;15.60;94.50
22379;DHT22;11357;49.990;7.370;2023-05-10T02:54:10;15.60;94.50
22379;DHT22;11357;49.990;7.370;2023-05-10T02:56:45;15.60;94.50
22379;DHT22;11357;49.990;7.370;2023-05-10T02:59:12;15.60;94.50
22379;DHT22;11357;49.990;7.370;2023-05-10T03:01:38;15.60;94.50
22379;DHT22;11357;49.990;7.370;2023-05-10T03:04:04;15.50;94.60
22379;DHT22;11357;49.990;7.370;2023-05-10T03:06:29;15.50;94.60
22379;DHT22;11357;49.990;7.370;2023-05-10T03:08:55;15.60;94.60
22379;DHT22;11357;49.990;7.370;2023-05-10T03:17:06;15.40;94.70
22379;DHT22;11357;49.990;7.370;2023-05-10T03:19:40;15.40;94.70
22379;DHT22;11357;49.990;7.370;2023-05-10T03:22:10;15.40;94.70
22379;DHT22;11357;49.990;7.370;2023-05-10T03:24:39;15.40;94.80
22379;DHT22;11357;49.990;7.370;2023-05-10T03:27:08;15.40;94.80
22379;DHT22;11357;49.990;7.370;2023-05-10T03:29:33;15.40;94.80
22379;DHT22;11357;49.990;7.370;2023-05-10T03:31:59;15.50;94.70
22379;DHT22;11357;49.990;7.370;2023-05-10T03:34:25;15.50;94.70
22379;DHT22;11357;49.990;7.370;2023-05-10T03:36:51;15.50;94.60
22379;DHT22;11357;49.990;7.370;2023-05-10T03:39:17;15.50;94.60
22379;DHT22;11357;49.990;7.370;2023-05-10T03:41:43;15.50;94.60
22379;DHT22;11357;49.990;7.370;2023-05-10T03:44:08;15.50;94.60
22379;DHT22;11357;49.990;7.370;2023-05-10T03:46:34;15.40;94.50
22379;DHT22;11357;49.990;7.370;2023-05-10T03:49:00;15.40;94.50
22379;DHT22;11357;49.990;7.370;2023-05-10T03:51:25;15.40;94.50
22379;DHT22;11357;49.990;7.370;2023-05-10T03:53:56;15.40;94.50
22379;DHT22;11357;49.990;7.370;2023-05-10T03:56:22;15.40;94.50
22379;DHT22;11357;49.990;7.370;2023-05-10T03:58:47;15.40;94.50
22379;DHT22;11357;49.990;7.370;2023-05-10T04:01:13;15.40;94.50
22379;DHT22;11357;49.990;7.370;2023-05-10T04:03:39;15.40;94.50
22379;DHT22;11357;49.990;7.370;2023-05-10T04:06:05;15.40;94.50
22379;DHT22;11357;49.990;7.370;2023-05-10T04:08:31;15.40;94.50
22379;DHT22;11357;49.990;7.370;2023-05-10T04:13:33;15.30;94.60
22379;DHT22;11357;49.990;7.370;2023-05-10T04:15:58;15.30;94.50
22379;DHT22;11357;49.990;7.370;2023-05-10T04:18:24;15.30;94.60
22379;DHT22;11357;49.990;7.370;2023-05-10T04:20:50;15.30;94.60
22379;DHT22;11357;49.990;7.370;2023-05-10T04:23:15;15.40;94.60
22379;DHT22;11357;49.990;7.370;2023-05-10T04:25:42;15.40;94.50
22379;DHT22;11357;49.990;7.370;2023-05-10T04:28:08;15.40;94.50
22379;DHT22;11357;49.990;7.370;2023-05-10T04:30:34;15.40;94.50
22379;DHT22;11357;49.990;7.370;2023-05-10T04:33:00;15.40;94.50
22379;DHT22;11357;49.990;7.370;2023-05-10T04:35:27;15.40;94.90
22379;DHT22;11357;49.990;7.370;2023-05-10T04:37:53;15.40;94.50
22379;DHT22;11357;49.990;7.370;2023-05-10T04:40:19;15.40;94.50
22379;DHT22;11357;49.990;7.370;2023-05-10T04:42:45;15.40;94.80
22379;DHT22;11357;49.990;7.370;2023-05-10T04:45:11;15.40;94.50
22379;DHT22;11357;49.990;7.370;2023-05-10T04:47:37;15.50;94.50
22379;DHT22;11357;49.990;7.370;2023-05-10T04:50:04;15.50;94.40
22379;DHT22;11357;49.990;7.370;2023-05-10T04:52:29;15.50;94.40
22379;DHT22;11357;49.990;7.370;2023-05-10T04:54:55;15.60;94.40
22379;DHT22;11357;49.990;7.370;2023-05-10T04:57:21;15.60;94.40
22379;DHT22;11357;49.990;7.370;2023-05-10T04:59:46;15.70;94.40
22379;DHT22;11357;49.990;7.370;2023-05-10T05:02:12;15.80;94.30
22379;DHT22;11357;49.990;7.370;2023-05-10T05:04:38;15.90;94.20
22379;DHT22;11357;49.990;7.370;2023-05-10T06:07:05;16.90;92.60
22379;DHT22;11357;49.990;7.370;2023-05-10T06:10:09;17.00;92.60
22379;DHT22;11357;49.990;7.370;2023-05-10T06:12:35;17.00;92.50
22379;DHT22;11357;49.990;7.370;2023-05-10T06:15:02;17.10;92.60
22379;DHT22;11357;49.990;7.370;2023-05-10T06:17:28;17.10;92.50
22379;DHT22;11357;49.990;7.370;2023-05-10T06:19:54;17.10;92.50
22379;DHT22;11357;49.990;7.370;2023-05-10T06:27:48;17.20;92.50
22379;DHT22;11357;49.990;7.370;2023-05-10T06:30:14;17.40;92.50
22379;DHT22;11357;49.990;7.370;2023-05-10T06:32:41;17.40;92.30
22379;DHT22;11357;49.990;7.370;2023-05-10T06:35:07;17.40;92.20
22379;DHT22;11357;49.990;7.370;2023-05-10T06:37:33;17.50;92.30
22379;DHT22;11357;49.990;7.370;2023-05-10T06:39:59;17.40;92.20
22379;DHT22;11357;49.990;7.370;2023-05-10T06:42:26;17.40;92.20
22379;DHT22;11357;49.990;7.370;2023-05-10T06:44:52;17.30;92.20
22379;DHT22;11357;49.990;7.370;2023-05-10T06:53:33;17.20;92.30
22379;DHT22;11357;49.990;7.370;2023-05-10T06:55:56;17.20;92.40
22379;DHT22;11357;49.990;7.370;2023-05-10T06:58:22;17.30;92.40
22379;DHT22;11357;49.990;7.370;2023-05-10T07:00:48;17.30;92.40
22379;DHT22;11357;49.990;7.370;2023-05-10T07:03:13;17.40;92.40
22379;DHT22;11357;49.990;7.370;2023-05-10T07:05:39;17.40;92.20
22379;DHT22;11357;49.990;7.370;2023-05-10T07:08:04;17.50;92.30
22379;DHT22;11357;49.990;7.370;2023-05-10T07:10:30;17.50;92.20
22379;DHT22;11357;49.990;7.370;2023-05-10T07:12:56;17.50;92.20
22379;DHT22;11357;49.990;7.370;2023-05-10T07:15:21;17.70;92.10
22379;DHT22;11357;49.990;7.370;2023-05-10T07:17:47;17.70;92.00
22379;DHT22;11357;49.990;7.370;2023-05-10T07:20:13;17.80;91.80
22379;DHT22;11357;49.990;7.370;2023-05-10T07:22:39;17.80;91.80
22379;DHT22;11357;49.990;7.370;2023-05-10T07:25:05;17.80;91.70
22379;DHT22;11357;49.990;7.370;2023-05-10T07:35:17;17.90;91.30
22379;DHT22;11357;49.990;7.370;2023-05-10T07:37:42;17.90;91.20
22379;DHT22;11357;49.990;7.370;2023-05-10T07:40:08;18.00;91.10
22379;DHT22;11357;49.990;7.370;2023-05-10T07:42:34;18.00;91.00
22379;DHT22;11357;49.990;7.370;2023-05-10T07:45:00;18.10;91.30
22379;DHT22;11357;49.990;7.370;2023-05-10T07:47:26;18.10;90.90
22379;DHT22;11357;49.990;7.370;2023-05-10T07:49:51;18.30;90.80
22379;DHT22;11357;49.990;7.370;2023-05-10T07:52:17;18.60;90.60
22379;DHT22;11357;49.990;7.370;2023-05-10T07:54:43;18.90;90.30
22379;DHT22;11357;49.990;7.370;2023-05-10T07:57:30;19.10;89.80
22379;DHT22;11357;49.990;7.370;2023-05-10T07:59:56;19.10;89.30
22379;DHT22;11357;49.990;7.370;2023-05-10T08:02:21;19.10;88.60
22379;DHT22;11357;49.990;7.370;2023-05-10T08:04:47;19.00;88.30
22379;DHT22;11357;49.990;7.370;2023-05-10T08:07:13;19.00;88.10
22379;DHT22;11357;49.990;7.370;2023-05-10T08:09:39;19.00;87.80
22379;DHT22;11357;49.990;7.370;2023-05-10T08:12:05;19.10;87.30
22379;DHT22;11357;49.990;7.370;2023-05-10T08:14:31;19.30;86.90
22379;DHT22;11357;49.990;7.370;2023-05-10T08:34:07;20.30;83.60
22379;DHT22;11357;49.990;7.370;2023-05-10T08:36:58;20.40;83.10
22379;DHT22;11357;49.990;7.370;2023-05-10T08:39:24;20.70;82.50
22379;DHT22;11357;49.990;7.370;2023-05-10T08:41:51;20.80;82.10
22379;DHT22;11357;49.990;7.370;2023-05-10T08:44:19;20.70;81.50
22379;DHT22;11357;49.990;7.370;2023-05-10T08:46:46;20.70;81.10
22379;DHT22;11357;49.990;7.370;2023-05-10T08:49:17;20.60;80.90
22379;DHT22;11357;49.990;7.370;2023-05-10T08:51:51;20.50;80.80
22379;DHT22;11357;49.990;7.370;2023-05-10T08:54:17;20.50;80.80
22379;DHT22;11357;49.990;7.370;2023-05-10T08:56:43;20.60;80.50
22379;DHT22;11357;49.990;7.370;2023-05-10T08:59:09;20.50;78.90
22379;DHT22;11357;49.990;7.370;2023-05-10T09:01:36;20.30;79.10
22379;DHT22;11357;49.990;7.370;2023-05-10T09:04:02;20.30;79.10
22379;DHT22;11357;49.990;7.370;2023-05-10T09:06:29;20.20;79.10
22379;DHT22;11357;49.990;7.370;2023-05-10T09:12:08;20.00;79.80
22379;DHT22;11357;49.990;7.370;2023-05-10T09:14:36;19.80;79.70
22379;DHT22;11357;49.990;7.370;2023-05-10T09:17:03;19.70;80.20
22379;DHT22;11357;49.990;7.370;2023-05-10T09:19:29;19.80;80.30
22379;DHT22;11357;49.990;7.370;2023-05-10T09:21:55;19.90;80.20
22379;DHT22;11357;49.990;7.370;2023-05-10T09:24:25;20.00;79.80
22379;DHT22;11357;49.990;7.370;2023-05-10T09:26:52;20.40;79.20
22379;DHT22;11357;49.990;7.370;2023-05-10T09:29:18;21.30;78.40
22379;DHT22;11357;49.990;7.370;2023-05-10T09:31:51;22.10;76.80
22379;DHT22;11357;49.990;7.370;2023-05-10T09:34:18;23.00;74.30
22379;DHT22;11357;49.990;7.370;2023-05-10T09:36:56;23.70;71.80
22379;DHT22;11357;49.990;7.370;2023-05-10T09:39:31;23.90;70.40
22379;DHT22;11357;49.990;7.370;2023-05-10T09:41:58;24.00;69.30
22379;DHT22;11357;49.990;7.370;2023-05-10T09:44:26;24.40;68.10
22379;DHT22;11357;49.990;7.370;2023-05-10T09:46:52;24.60;66.70
22379;DHT22;11357;49.990;7.370;2023-05-10T09:49:30;24.60;65.50
22379;DHT22;11357;49.990;7.370;2023-05-10T09:52:06;24.70;65.40
22379;DHT22;11357;49.990;7.370;2023-05-10T09:54:33;24.90;64.20
22379;DHT22;11357;49.990;7.370;2023-05-10T09:57:00;25.50;63.20
22379;DHT22;11357;49.990;7.370;2023-05-10T09:59:27;26.10;61.90
22379;DHT22;11357;49.990;7.370;2023-05-10T10:01:56;26.80;60.90
22379;DHT22;11357;49.990;7.370;2023-05-10T10:04:22;27.20;59.60
22379;DHT22;11357;49.990;7.370;2023-05-10T10:07:02;27.50;59.20
22379;DHT22;11357;49.990;7.370;2023-05-10T10:09:28;27.40;58.40
22379;DHT22;11357;49.990;7.370;2023-05-10T10:11:55;27.00;58.00
22379;DHT22;11357;49.990;7.370;2023-05-10T10:14:23;26.80;58.40
22379;DHT22;11357;49.990;7.370;2023-05-10T10:16:55;26.80;58.30
22379;DHT22;11357;49.990;7.370;2023-05-10T10:19:24;26.70;57.50
22379;DHT22;11357;49.990;7.370;2023-05-10T10:21:51;26.50;56.90
22379;DHT22;11357;49.990;7.370;2023-05-10T10:24:21;26.20;57.30
22379;DHT22;11357;49.990;7.370;2023-05-10T10:26:48;25.90;57.90
22379;DHT22;11357;49.990;7.370;2023-05-10T10:33:13;26.40;56.80
22379;DHT22;11357;49.990;7.370;2023-05-10T10:35:06;26.30;56.40
22379;DHT22;11357;49.990;7.370;2023-05-10T10:37:48;25.80;56.90
22379;DHT22;11357;49.990;7.370;2023-05-10T10:40:26;25.70;57.50
22379;DHT22;11357;49.990;7.370;2023-05-10T10:43:20;25.10;57.20
22379;DHT22;11357;49.990;7.370;2023-05-10T10:46:16;24.90;58.40
22379;DHT22;11357;49.990;7.370;2023-05-10T10:55:18;23.80;59.70
22379;DHT22;11357;49.990;7.370;2023-05-10T10:57:50;23.60;60.50
22379;DHT22;11357;49.990;7.370;2023-05-10T11:00:35;23.90;61.10
22379;DHT22;11357;49.990;7.370;2023-05-10T11:03:12;24.30;61.10
22379;DHT22;11357;49.990;7.370;2023-05-10T11:05:47;25.10;60.10
22379;DHT22;11357;49.990;7.370;2023-05-10T11:10:52;25.80;57.30
22379;DHT22;11357;49.990;7.370;2023-05-10T11:13:27;25.90;57.20
22379;DHT22;11357;49.990;7.370;2023-05-10T11:15:54;26.20;56.80
22379;DHT22;11357;49.990;7.370;2023-05-10T11:18:29;26.30;56.20
22379;DHT22;11357;49.990;7.370;2023-05-10T11:21:00;26.30;56.30
22379;DHT22;11357;49.990;7.370;2023-05-10T11:26:12;26.30;56.40
22379;DHT22;11357;49.990;7.370;2023-05-10T11:28:45;26.10;56.20
22379;DHT22;11357;49.990;7.370;2023-05-10T11:31:14;26.00;56.30
22379;DHT22;11357;49.990;7.370;2023-05-10T11:36:36;25.90;56.60
22379;DHT22;11357;49.990;7.370;2023-05-10T11:39:04;25.80;56.80
22379;DHT22;11357;49.990;7.370;2023-05-10T11:41:30;25.80;56.50
22379;DHT22;11357;49.990;7.370;2023-05-10T11:43:59;25.50;56.50
22379;DHT22;11357;49.990;7.370;2023-05-10T11:46:27;25.20;57.30
22379;DHT22;11357;49.990;7.370;2023-05-10T11:48:57;24.90;57.10
22379;DHT22;11357;49.990;7.370;2023-05-10T11:51:26;24.50;57.50
22379;DHT22;11357;49.990;7.370;2023-05-10T11:53:54;24.20;58.20
22379;DHT22;11357;49.990;7.370;2023-05-10T11:56:20;24.00;58.80
22379;DHT22;11357;49.990;7.370;2023-05-10T11:58:53;24.20;58.80
22379;DHT22;11357;49.990;7.370;2023-05-10T12:01:21;24.60;58.40
22379;DHT22;11357;49.990;7.370;2023-05-10T12:03:47;25.10;57.30
22379;DHT22;11357;49.990;7.370;2023-05-10T12:06:13;25.30;56.90
22379;DHT22;11357;49.990;7.370;2023-05-10T12:08:45;25.50;56.60
22379;DHT22;11357;49.990;7.370;2023-05-10T12:11:26;25.50;56.00
22379;DHT22;11357;49.990;7.370;2023-05-10T12:13:53;25.60;56.00
22379;DHT22;11357;49.990;7.370;2023-05-10T12:16:21;25.70;55.40
22379;DHT22;11357;49.990;7.370;2023-05-10T12:18:56;25.70;55.20
22379;DHT22;11357;49.990;7.370;2023-05-10T12:21:22;25.80;55.20
22379;DHT22;11357;49.990;7.370;2023-05-10T12:23:51;25.90;54.80
22379;DHT22;11357;49.990;7.370;2023-05-10T12:26:16;25.90;54.90
22379;DHT22;11357;49.990;7.370;2023-05-10T12:28:42;25.70;54.90
22379;DHT22;11357;49.990;7.370;2023-05-10T12:31:08;25.30;54.70
22379;DHT22;11357;49.990;7.370;2023-05-10T12:33:39;25.00;55.30
22379;DHT22;11357;49.990;7.370;2023-05-10T12:36:07;24.80;56.00
22379;DHT22;11357;49.990;7.370;2023-05-10T12:38:35;24.80;56.00
22379;DHT22;11357;49.990;7.370;2023-05-10T12:41:07;24.70;56.00
22379;DHT22;11357;49.990;7.370;2023-05-10T12:43:34;24.60;56.00
22379;DHT22;11357;49.990;7.370;2023-05-10T12:46:07;24.70;56.00
22379;DHT22;11357;49.990;7.370;2023-05-10T12:48:33;24.70;55.40
22379;DHT22;11357;49.990;7.370;2023-05-10T12:51:00;24.80;55.20
22379;DHT22;11357;49.990;7.370;2023-05-10T12:53:26;25.10;55.10
22379;DHT22;11357;49.990;7.370;2023-05-10T12:55:52;25.30;54.70
22379;DHT22;11357;49.990;7.370;2023-05-10T12:58:18;25.50;54.40
22379;DHT22;11357;49.990;7.370;2023-05-10T13:00:44;25.70;54.40
22379;DHT22;11357;49.990;7.370;2023-05-10T13:03:10;25.90;54.00
22379;DHT22;11357;49.990;7.370;2023-05-10T13:05:36;26.10;54.20
22379;DHT22;11357;49.990;7.370;2023-05-10T13:08:02;26.20;53.90
22379;DHT22;11357;49.990;7.370;2023-05-10T13:10:30;26.30;53.30
22379;DHT22;11357;49.990;7.370;2023-05-10T13:12:56;26.10;53.00
22379;DHT22;11357;49.990;7.370;2023-05-10T13:15:22;26.00;53.30
22379;DHT22;11357;49.990;7.370;2023-05-10T13:17:48;26.00;53.60
22379;DHT22;11357;49.990;7.370;2023-05-10T13:20:14;26.00;53.70
22379;DHT22;11357;49.990;7.370;2023-05-10T13:22:41;26.00;53.70
22379;DHT22;11357;49.990;7.370;2023-05-10T13:25:07;25.80;53.70
22379;DHT22;11357;49.990;7.370;2023-05-10T13:27:33;25.60;53.50
22379;DHT22;11357;49.990;7.370;2023-05-10T13:29:59;25.50;53.90
22379;DHT22;11357;49.990;7.370;2023-05-10T13:32:25;25.70;53.80
22379;DHT22;11357;49.990;7.370;2023-05-10T13:34:51;26.30;51.90
22379;DHT22;11357;49.990;7.370;2023-05-10T13:37:24;26.50;51.20
22379;DHT22;11357;49.990;7.370;2023-05-10T13:39:50;26.60;51.00
22379;DHT22;11357;49.990;7.370;2023-05-10T13:42:17;27.10;50.70
22379;DHT22;11357;49.990;7.370;2023-05-10T13:44:43;27.90;50.20
22379;DHT22;11357;49.990;7.370;2023-05-10T13:47:09;28.70;49.40
22379;DHT22;11357;49.990;7.370;2023-05-10T13:49:35;29.00;48.70
22379;DHT22;11357;49.990;7.370;2023-05-10T13:52:01;29.20;48.20
22379;DHT22;11357;49.990;7.370;2023-05-10T13:54:49;29.00;47.60
22379;DHT22;11357;49.990;7.370;2023-05-10T13:57:17;29.30;48.30
22379;DHT22;11357;49.990;7.370;2023-05-10T13:59:43;29.40;47.70
22379;DHT22;11357;49.990;7.370;2023-05-10T14:02:09;29.10;47.30
22379;DHT22;11357;49.990;7.370;2023-05-10T14:04:36;29.10;47.60
22379;DHT22;11357;49.990;7.370;2023-05-10T14:07:01;29.20;46.80
22379;DHT22;11357;49.990;7.370;2023-05-10T14:09:27;29.10;46.30
22379;DHT22;11357;49.990;7.370;2023-05-10T14:11:53;28.70;46.30
22379;DHT22;11357;49.990;7.370;2023-05-10T14:14:18;29.00;47.30
22379;DHT22;11357;49.990;7.370;2023-05-10T14:16:44;29.30;46.70
22379;DHT22;11357;49.990;7.370;2023-05-10T14:19:10;29.10;45.70
22379;DHT22;11357;49.990;7.370;2023-05-10T14:21:37;28.60;45.80
22379;DHT22;11357;49.990;7.370;2023-05-10T14:24:02;28.60;46.50
22379;DHT22;11357;49.990;7.370;2023-05-10T14:26:31;28.70;46.70
22379;DHT22;11357;49.990;7.370;2023-05-10T14:29:04;28.70;46.00
22379;DHT22;11357;49.990;7.370;2023-05-10T14:31:30;28.70;45.40
22379;DHT22;11357;49.990;7.370;2023-05-10T14:33:56;28.90;45.70
22379;DHT22;11357;49.990;7.370;2023-05-10T14:36:23;29.00;45.10
22379;DHT22;11357;49.990;7.370;2023-05-10T14:38:49;28.60;45.20
22379;DHT22;11357;49.990;7.370;2023-05-10T14:41:15;28.30;45.20
22379;DHT22;11357;49.990;7.370;2023-05-10T14:43:43;28.30;45.70
22379;DHT22;11357;49.990;7.370;2023-05-10T14:46:08;28.50;45.40
22379;DHT22;11357;49.990;7.370;2023-05-10T14:48:34;28.60;45.20
22379;DHT22;11357;49.990;7.370;2023-05-10T14:51:00;28.90;44.70
22379;DHT22;11357;49.990;7.370;2023-05-10T14:53:26;29.10;44.30
22379;DHT22;11357;49.990;7.370;2023-05-10T14:55:51;28.90;43.80
22379;DHT22;11357;49.990;7.370;2023-05-10T14:58:17;28.90;44.60
22379;DHT22;11357;49.990;7.370;2023-05-10T15:00:43;29.10;44.50
22379;DHT22;11357;49.990;7.370;2023-05-10T15:03:09;29.00;43.60
22379;DHT22;11357;49.990;7.370;2023-05-10T15:05:35;29.00;43.10
22379;DHT22;11357;49.990;7.370;2023-05-10T15:08:05;28.90;43.10
22379;DHT22;11357;49.990;7.370;2023-05-10T15:10:31;28.90;43.00
22379;DHT22;11357;49.990;7.370;2023-05-10T15:12:58;28.90;43.40
22379;DHT22;11357;49.990;7.370;2023-05-10T15:15:24;29.00;43.60
22379;DHT22;11357;49.990;7.370;2023-05-10T15:17:50;29.10;43.50
22379;DHT22;11357;49.990;7.370;2023-05-10T15:20:15;29.10;43.20
22379;DHT22;11357;49.990;7.370;2023-05-10T15:22:41;29.10;42.90
22379;DHT22;11357;49.990;7.370;2023-05-10T15:25:09;29.00;42.90
22379;DHT22;11357;49.990;7.370;2023-05-10T15:27:38;28.80;42.80
22379;DHT22;11357;49.990;7.370;2023-05-10T15:30:41;28.70;43.00
22379;DHT22;11357;49.990;7.370;2023-05-10T15:33:11;28.50;43.60
22379;DHT22;11357;49.990;7.370;2023-05-10T15:35:37;28.50;43.90
22379;DHT22;11357;49.990;7.370;2023-05-10T15:38:16;28.50;43.60
22379;DHT22;11357;49.990;7.370;2023-05-10T15:40:42;28.40;43.80
22379;DHT22;11357;49.990;7.370;2023-05-10T15:43:13;28.20;43.40
22379;DHT22;11357;49.990;7.370;2023-05-10T15:45:39;28.10;43.90
22379;DHT22;11357;49.990;7.370;2023-05-10T15:48:05;28.10;44.10
22379;DHT22;11357;49.990;7.370;2023-05-10T15:50:30;28.00;43.80
22379;DHT22;11357;49.990;7.370;2023-05-10T15:52:56;28.00;43.70
22379;DHT22;11357;49.990;7.370;2023-05-10T15:55:22;28.00;44.10
22379;DHT22;11357;49.990;7.370;2023-05-10T15:57:47;27.90;44.90
22379;DHT22;11357;49.990;7.370;2023-05-10T16:00:15;27.80;45.00
22379;DHT22;11357;49.990;7.370;2023-05-10T16:02:41;27.70;44.70
22379;DHT22;11357;49.990;7.370;2023-05-10T16:05:07;27.50;45.10
22379;DHT22;11357;49.990;7.370;2023-05-10T16:07:34;27.50;45.30
22379;DHT22;11357;49.990;7.370;2023-05-10T16:09:59;27.30;44.90
22379;DHT22;11357;49.990;7.370;2023-05-10T16:12:29;27.10;44.60
22379;DHT22;11357;49.990;7.370;2023-05-10T16:14:55;26.60;44.70
22379;DHT22;11357;49.990;7.370;2023-05-10T16:17:21;26.00;45.50
22379;DHT22;11357;49.990;7.370;2023-05-10T16:19:47;25.80;46.40
22379;DHT22;11357;49.990;7.370;2023-05-10T16:22:13;25.60;45.60
22379;DHT22;11357;49.990;7.370;2023-05-10T16:24:39;25.20;46.00
22379;DHT22;11357;49.990;7.370;2023-05-10T16:27:05;25.00;46.50
22379;DHT22;11357;49.990;7.370;2023-05-10T16:29:31;24.90;47.10
22379;DHT22;11357;49.990;7.370;2023-05-10T16:31:57;24.70;48.00
22379;DHT22;11357;49.990;7.370;2023-05-10T16:34:22;24.60;48.60
22379;DHT22;11357;49.990;7.370;2023-05-10T16:36:49;24.50;48.90
22379;DHT22;11357;49.990;7.370;2023-05-10T16:39:16;24.40;49.20
22379;DHT22;11357;49.990;7.370;2023-05-10T16:41:41;24.30;49.60
22379;DHT22;11357;49.990;7.370;2023-05-10T16:44:07;24.30;49.80
22379;DHT22;11357;49.990;7.370;2023-05-10T16:46:33;24.40;49.80
22379;DHT22;11357;49.990;7.370;2023-05-10T16:48:59;24.40;49.00
22379;DHT22;11357;49.990;7.370;2023-05-10T16:51:25;24.20;48.60
22379;DHT22;11357;49.990;7.370;2023-05-10T16:53:52;23.90;48.80
22379;DHT22;11357;49.990;7.370;2023-05-10T16:56:17;23.50;49.50
22379;DHT22;11357;49.990;7.370;2023-05-10T16:58:46;23.10;50.00
22379;DHT22;11357;49.990;7.370;2023-05-10T17:01:14;22.70;50.60
22379;DHT22;11357;49.990;7.370;2023-05-10T17:03:40;22.40;51.30
22379;DHT22;11357;49.990;7.370;2023-05-10T17:06:06;22.20;51.50
22379;DHT22;11357;49.990;7.370;2023-05-10T17:08:32;22.10;51.70
22379;DHT22;11357;49.990;7.370;2023-05-10T17:11:01;22.10;51.80
22379;DHT22;11357;49.990;7.370;2023-05-10T17:13:28;22.10;51.70
22379;DHT22;11357;49.990;7.370;2023-05-10T17:18:30;22.00;52.80
22379;DHT22;11357;49.990;7.370;2023-05-10T17:20:55;22.00;53.20
22379;DHT22;11357;49.990;7.370;2023-05-10T17:23:21;22.00;53.40
22379;DHT22;11357;49.990;7.370;2023-05-10T17:25:47;22.00;53.40
22379;DHT22;11357;49.990;7.370;2023-05-10T17:28:12;21.90;53.20
22379;DHT22;11357;49.990;7.370;2023-05-10T17:30:38;21.70;52.80
22379;DHT22;11357;49.990;7.370;2023-05-10T17:33:04;21.60;53.30
22379;DHT22;11357;49.990;7.370;2023-05-10T17:35:29;21.60;54.10
22379;DHT22;11357;49.990;7.370;2023-05-10T17:45:48;21.60;55.70
22379;DHT22;11357;49.990;7.370;2023-05-10T17:48:14;21.70;56.30
22379;DHT22;11357;49.990;7.370;2023-05-10T17:50:42;21.70;56.30
22379;DHT22;11357;49.990;7.370;2023-05-10T17:53:09;21.70;56.00
22379;DHT22;11357;49.990;7.370;2023-05-10T17:55:35;21.60;55.70
22379;DHT22;11357;49.990;7.370;2023-05-10T17:58:00;21.50;55.60
22379;DHT22;11357;49.990;7.370;2023-05-10T18:00:26;21.30;55.70
22379;DHT22;11357;49.990;7.370;2023-05-10T18:02:52;21.20;55.80